Main page
METAR-TAF:

METAR-TAF

Airports :

Durham, England

Durham Tees Valley Airport

latitude: 54-31N, longitude: 001-25W, elevation: 37 m

Current weather observation

The report was made 28 minutes ago, at 16:20 UTC
Wind 14 kt from the Southwest
Temperature 20°C
Humidity 68%
Pressure 998 hPa
Visibility 10 km or more
Few clouds at a height of 1900 ft

METAR: EGNV 261620Z 23014KT 9999 FEW019 20/14 Q0998

Time: 17:48 (16:48 UTC)

Forecast

The report was made 2 hours and 52 minutes ago, at 13:56 UTC
Forecast valid from 26 at 15 UTC to 26 at 21 UTC
Wind 12 kt from the Southwest
Visibility 10 km or more
Few clouds at a height of 1500 ft
Temporary
from 26 at 15 UTC to 26 at 21 UTC
Visibility: 6000 m
rain showers
Probability 40% :
Temporary
from 26 at 15 UTC to 26 at 17 UTC
Broken clouds at a height of 800 ft

TAF: EGNV 261356Z 2615/2621 22012KT 9999 FEW015 TEMPO 2615/2621 6000 SHRA PROB40 TEMPO 2615/2617 BKN008

Weather observations and forecasts of more than 4000 airports (METAR and TAF reports).

The available stations are represented by yellow and red dots on the map.

Hover mouse over dot to see the name of the station.

Then click to see weather observations and forecasts.

To change the map : click on the green buttons with a black cross to zoom in, on the green button with a dash to zoom out, or on the green arrows for adjacent maps.


METAR-TAF: